Time;durP1;ratioP1;P1;durP2;ratioP2;P2;SDS_P1;SDS_P2;PMS_P1;PMS_P2;Temp;Humidity;BMP_temperature;BMP_pressure;BME280_temperature;BME280_humidity;BME280_pressure;Samples;Min_cycle;Max_cycle;Signal;HPM_P1;HPM_P2
2021/01/25 00:01:40;;;;;;;3.33;2.20;;;;;;;1.64;64.08;98869.94;4998922;28;20042;-71
2021/01/25 00:04:05;;;;;;;4.72;2.40;;;;;;;1.66;63.77;98862.00;5005387;28;20504;-71
2021/01/25 00:06:32;;;;;;;4.22;2.35;;;;;;;1.66;64.23;98862.81;5009251;28;20049;-71
2021/01/25 00:08:57;;;;;;;4.00;2.17;;;;;;;1.61;64.53;98866.81;5002755;28;20403;-71
2021/01/25 00:11:23;;;;;;;3.85;2.47;;;;;;;1.64;64.42;98864.75;4996090;28;20132;-71
2021/01/25 00:13:48;;;;;;;4.70;2.47;;;;;;;1.67;64.59;98867.09;4995169;28;20120;-71
2021/01/25 00:16:13;;;;;;;4.50;2.60;;;;;;;1.65;64.59;98861.19;5009271;28;20026;-71
2021/01/25 00:18:39;;;;;;;3.95;2.50;;;;;;;1.64;64.95;98863.91;5004374;28;20029;-71
2021/01/25 00:21:04;;;;;;;4.10;2.42;;;;;;;1.61;65.37;98865.03;4996552;28;20045;-71
2021/01/25 00:23:29;;;;;;;3.38;2.28;;;;;;;1.51;66.58;98869.41;4994398;28;20511;-71
2021/01/25 00:25:55;;;;;;;5.78;2.47;;;;;;;1.53;66.71;98864.88;5003434;28;20117;-71
2021/01/25 00:28:20;;;;;;;3.33;2.17;;;;;;;1.46;67.52;98864.59;4989494;28;20053;-71
2021/01/25 00:30:45;;;;;;;4.78;2.30;;;;;;;1.46;68.06;98856.78;5002131;28;20407;-71
2021/01/25 00:33:10;;;;;;;4.32;2.40;;;;;;;1.43;68.33;98861.41;5005110;28;20073;-71
2021/01/25 00:35:36;;;;;;;4.15;2.50;;;;;;;1.43;68.68;98856.22;4990038;28;20037;-71
2021/01/25 00:38:01;;;;;;;5.47;2.90;;;;;;;1.31;69.41;98858.13;4991527;28;20129;-72
2021/01/25 00:40:26;;;;;;;4.57;2.85;;;;;;;1.21;70.04;98852.88;5001152;28;20038;-71
2021/01/25 00:42:52;;;;;;;4.55;2.85;;;;;;;1.19;70.74;98851.38;4996188;28;20034;-71
2021/01/25 00:45:17;;;;;;;4.40;3.00;;;;;;;1.20;70.51;98853.03;4992711;28;20042;-71
2021/01/25 00:47:42;;;;;;;5.28;3.40;;;;;;;1.15;70.85;98839.59;5004187;28;20034;-70
2021/01/25 00:50:08;;;;;;;5.65;3.08;;;;;;;1.04;71.48;98833.53;4994935;28;20041;-71
2021/01/25 00:52:33;;;;;;;4.90;3.38;;;;;;;1.03;71.45;98831.88;5001731;28;20434;-71
2021/01/25 00:54:59;;;;;;;4.38;2.80;;;;;;;1.02;71.53;98839.81;4990833;28;20104;-71
2021/01/25 00:57:24;;;;;;;4.35;2.90;;;;;;;1.03;71.86;98837.09;4990221;28;20034;-71
2021/01/25 00:59:49;;;;;;;6.47;3.15;;;;;;;1.00;72.04;98832.16;4990547;28;20089;-71
2021/01/25 01:02:15;;;;;;;5.75;3.40;;;;;;;1.03;71.48;98831.88;5006834;28;20065;-71
2021/01/25 01:04:40;;;;;;;5.30;3.47;;;;;;;1.06;71.33;98831.59;4997619;28;20030;-71
2021/01/25 01:07:05;;;;;;;5.82;3.33;;;;;;;1.02;71.51;98827.63;4993102;28;20069;-71
2021/01/25 01:09:31;;;;;;;5.70;3.40;;;;;;;1.00;71.58;98832.16;5006577;28;20038;-71
2021/01/25 01:11:56;;;;;;;5.15;3.10;;;;;;;1.02;71.90;98829.41;5002477;28;20438;-71
2021/01/25 01:14:23;;;;;;;5.55;3.15;;;;;;;1.00;71.70;98826.09;4999521;28;20034;-71
2021/01/25 01:16:48;;;;;;;5.45;3.50;;;;;;;1.01;71.83;98827.78;5005551;28;20565;-71
2021/01/25 01:19:13;;;;;;;5.57;3.60;;;;;;;1.08;71.82;98828.06;5002810;28;20031;-71
2021/01/25 01:21:39;;;;;;;5.43;3.72;;;;;;;1.02;72.67;98827.63;4995466;28;20412;-71
2021/01/25 01:24:05;;;;;;;5.43;3.75;;;;;;;1.00;72.46;98832.16;5002795;28;20041;-71
2021/01/25 01:26:30;;;;;;;4.43;3.08;;;;;;;1.00;72.38;98831.31;4995934;28;20042;-71
2021/01/25 01:28:55;;;;;;;4.65;3.30;;;;;;;1.04;71.99;98833.53;4989829;28;20399;-71
2021/01/25 01:31:21;;;;;;;6.05;3.10;;;;;;;1.04;72.08;98828.31;4997427;28;20029;-71
2021/01/25 01:33:46;;;;;;;5.35;3.70;;;;;;;1.07;71.71;98832.44;4996064;28;20565;-71
2021/01/25 01:36:11;;;;;;;5.43;3.42;;;;;;;1.08;71.56;98828.88;5004451;28;20046;-71
2021/01/25 01:38:38;;;;;;;5.03;3.28;;;;;;;1.11;71.43;98826.00;5004991;28;20503;-71
2021/01/25 01:41:04;;;;;;;3.72;2.92;;;;;;;1.04;71.79;98827.50;5007233;28;20057;-71
2021/01/25 01:43:29;;;;;;;5.97;3.50;;;;;;;1.13;71.13;98825.88;5005518;28;20073;-71
2021/01/25 01:45:54;;;;;;;5.65;3.00;;;;;;;1.11;71.53;98822.59;4992724;28;20038;-71
2021/01/25 01:48:21;;;;;;;4.30;3.10;;;;;;;1.03;71.75;98821.47;5001982;28;20293;-71
2021/01/25 01:50:46;;;;;;;5.50;3.10;;;;;;;1.18;70.79;98818.50;5009696;28;20037;-71
2021/01/25 01:53:12;;;;;;;5.13;3.03;;;;;;;1.10;71.33;98811.34;5005615;28;20034;-71
2021/01/25 01:55:37;;;;;;;6.82;3.20;;;;;;;1.10;71.36;98813.13;5007848;28;20303;-71
2021/01/25 01:58:03;;;;;;;5.40;3.33;;;;;;;1.12;71.34;98817.25;4991816;28;20035;-71
2021/01/25 02:00:29;;;;;;;5.63;3.22;;;;;;;1.14;71.15;98811.91;5010398;28;20042;-71
2021/01/25 02:02:54;;;;;;;4.47;3.03;;;;;;;1.20;71.03;98812.19;4993302;28;20034;-70
2021/01/25 02:05:20;;;;;;;5.63;3.08;;;;;;;1.10;71.67;98816.56;4999034;28;20395;-71
2021/01/25 02:07:50;;;;;;;5.90;3.00;;;;;;;1.19;70.95;98822.72;5008989;28;20053;-71
2021/01/25 02:10:18;;;;;;;4.45;2.70;;;;;;;1.17;71.04;98814.22;5001738;28;20034;-71
2021/01/25 02:12:44;;;;;;;5.43;2.55;;;;;;;1.19;71.23;98809.72;5007783;28;20038;-71
2021/01/25 02:15:11;;;;;;;4.25;2.60;;;;;;;1.22;70.94;98817.28;4982354;28;20030;-71
2021/01/25 02:17:37;;;;;;;4.53;2.50;;;;;;;1.17;71.15;98812.47;4999554;28;20038;-71
2021/01/25 02:20:09;;;;;;;3.60;2.67;;;;;;;1.19;71.14;98815.75;4996517;28;20084;-72
2021/01/25 02:22:37;;;;;;;3.70;2.13;;;;;;;1.15;72.09;98811.78;4996368;28;20037;-71
2021/01/25 02:25:20;;;;;;;3.42;1.95;;;;;;;1.17;71.81;98814.22;5005652;28;20125;-71
2021/01/25 02:27:45;;;;;;;3.33;1.75;;;;;;;1.16;71.93;98810.00;4991616;28;20169;-71
2021/01/25 02:30:16;;;;;;;2.47;1.50;;;;;;;1.19;72.20;98820.13;5000186;28;20562;-71
2021/01/25 02:32:43;;;;;;;3.10;2.10;;;;;;;1.25;71.79;98812.59;4997616;28;20380;-71
2021/01/25 02:35:12;;;;;;;3.60;2.65;;;;;;;1.33;71.18;98803.31;5006821;28;20083;-71
2021/01/25 02:37:39;;;;;;;4.40;3.10;;;;;;;1.26;71.40;98806.47;5009906;28;20404;-71
2021/01/25 02:40:06;;;;;;;5.22;3.10;;;;;;;1.35;70.82;98801.38;4998976;28;20037;-71
2021/01/25 02:42:33;;;;;;;3.45;2.70;;;;;;;1.27;71.38;98804.69;4996275;28;20034;-71
2021/01/25 02:44:59;;;;;;;3.92;2.70;;;;;;;1.27;71.73;98796.88;5007247;28;20275;-71
2021/01/25 02:47:25;;;;;;;3.42;2.28;;;;;;;1.20;72.90;98800.97;4999467;28;20035;-71
2021/01/25 02:49:51;;;;;;;2.45;1.70;;;;;;;1.18;72.36;98792.47;5004143;28;20072;-71
2021/01/25 02:52:16;;;;;;;3.47;2.38;;;;;;;1.11;73.70;98796.56;5004467;28;20061;-71
2021/01/25 02:54:43;;;;;;;2.20;1.80;;;;;;;1.10;73.55;98797.50;4997469;28;20041;-71
2021/01/25 02:57:09;;;;;;;3.53;2.00;;;;;;;1.17;72.74;98793.41;4991342;28;20038;-71
2021/01/25 02:59:37;;;;;;;2.10;1.75;;;;;;;1.14;72.72;98802.31;4990820;28;20411;-71
2021/01/25 03:02:03;;;;;;;3.58;1.80;;;;;;;1.15;73.83;98795.34;4998542;28;20062;-72
2021/01/25 03:04:29;;;;;;;2.53;1.52;;;;;;;1.18;73.66;98793.28;4995430;28;20057;-71
2021/01/25 03:06:56;;;;;;;3.67;2.40;;;;;;;1.27;72.76;98789.88;4996428;28;20093;-71
2021/01/25 03:09:22;;;;;;;4.07;2.63;;;;;;;1.36;71.87;98796.06;5000028;28;20038;-71
2021/01/25 03:11:47;;;;;;;3.33;2.10;;;;;;;1.24;72.11;98799.72;4997734;28;20449;-71
2021/01/25 03:14:13;;;;;;;2.97;2.00;;;;;;;1.24;72.21;98802.31;5010202;28;20045;-71
2021/01/25 03:16:38;;;;;;;3.40;2.05;;;;;;;1.29;72.16;98802.75;5001210;28;20298;-71
2021/01/25 03:19:04;;;;;;;3.17;2.33;;;;;;;1.34;71.79;98805.78;5003898;28;20561;-71
2021/01/25 03:21:32;;;;;;;3.90;2.58;;;;;;;1.37;71.52;98802.91;5002270;28;20030;-71
2021/01/25 03:23:58;;;;;;;3.92;2.40;;;;;;;1.32;71.41;98804.28;5008826;28;20068;-71
2021/01/25 03:26:23;;;;;;;3.83;2.35;;;;;;;1.30;71.33;98803.56;5002452;28;20484;-71
2021/01/25 03:28:48;;;;;;;4.93;2.17;;;;;;;1.31;71.64;98813.03;4990680;28;20038;-71
2021/01/25 03:31:14;;;;;;;3.10;1.88;;;;;;;1.29;72.12;98818.38;4996188;28;20514;-71
2021/01/25 03:33:39;;;;;;;3.70;2.00;;;;;;;1.36;71.54;98818.66;5000779;28;20053;-71
2021/01/25 03:36:04;;;;;;;4.25;2.10;;;;;;;1.37;70.93;98810.72;5003322;28;20038;-71
2021/01/25 03:38:30;;;;;;;2.53;1.70;;;;;;;1.40;70.67;98822.63;5006099;28;20386;-71
2021/01/25 03:40:55;;;;;;;2.22;1.50;;;;;;;1.41;71.06;98809.50;5002599;28;20050;-71
2021/01/25 03:43:20;;;;;;;2.33;1.15;;;;;;;1.42;71.00;98820.72;5005310;28;20113;-71
2021/01/25 03:45:46;;;;;;;1.85;1.08;;;;;;;1.45;71.19;98818.69;4991271;28;20041;-71
2021/01/25 03:48:11;;;;;;;2.72;1.63;;;;;;;1.49;71.20;98817.44;5002181;28;20034;-71
2021/01/25 03:50:36;;;;;;;3.83;2.40;;;;;;;1.53;71.38;98812.78;4990362;28;20070;-71
2021/01/25 03:53:03;;;;;;;2.72;1.83;;;;;;;1.53;71.57;98822.41;5002372;28;20038;-71
2021/01/25 03:55:28;;;;;;;3.50;2.10;;;;;;;1.55;71.52;98826.50;5005301;28;20092;-71
2021/01/25 03:57:54;;;;;;;3.35;2.13;;;;;;;1.56;71.51;98822.09;5001121;28;20426;-71
2021/01/25 04:00:20;;;;;;;5.45;3.25;;;;;;;1.58;71.54;98820.19;4989959;28;20435;-71
2021/01/25 04:02:45;;;;;;;5.20;3.30;;;;;;;1.53;71.86;98823.22;4995203;28;20029;-71
2021/01/25 04:05:11;;;;;;;4.32;2.90;;;;;;;1.52;71.78;98821.53;5004798;28;20501;-71
2021/01/25 04:07:36;;;;;;;3.83;2.60;;;;;;;1.49;71.83;98822.63;4997796;28;20593;-71
2021/01/25 04:10:03;;;;;;;3.88;2.58;;;;;;;1.50;71.89;98828.66;4998812;28;20117;-72
2021/01/25 04:12:28;;;;;;;4.32;3.05;;;;;;;1.48;72.28;98834.03;4993406;28;20409;-71
2021/01/25 04:14:54;;;;;;;4.90;3.42;;;;;;;1.47;72.19;98834.16;4999531;28;20037;-71
2021/01/25 04:17:19;;;;;;;3.30;2.60;;;;;;;1.43;72.28;98843.19;4999605;28;20330;-71
2021/01/25 04:19:44;;;;;;;4.15;2.72;;;;;;;1.43;72.39;98840.59;4994003;28;20027;-71
2021/01/25 04:22:09;;;;;;;4.88;3.42;;;;;;;1.42;72.50;98837.16;5005485;28;20046;-71
2021/01/25 04:24:35;;;;;;;4.65;3.40;;;;;;;1.42;72.66;98841.56;4999506;28;20645;-71
2021/01/25 04:27:00;;;;;;;4.22;3.47;;;;;;;1.39;72.79;98844.44;5007274;28;20080;-71
2021/01/25 04:29:25;;;;;;;6.78;3.95;;;;;;;1.39;72.99;98841.84;5008396;28;20064;-71
2021/01/25 04:31:51;;;;;;;4.82;3.65;;;;;;;1.34;73.09;98846.63;4995556;28;20486;-71
2021/01/25 04:34:17;;;;;;;5.40;3.58;;;;;;;1.35;73.48;98850.88;5004788;28;20086;-71
2021/01/25 04:36:42;;;;;;;4.30;2.92;;;;;;;1.23;74.41;98850.16;4989425;28;20129;-71
2021/01/25 04:39:08;;;;;;;4.68;3.10;;;;;;;1.23;74.24;98855.34;5001975;28;20126;-71
2021/01/25 04:41:33;;;;;;;3.63;2.40;;;;;;;1.18;74.93;98850.56;4994025;28;20041;-70
2021/01/25 04:44:00;;;;;;;3.53;2.50;;;;;;;1.12;76.27;98856.31;5004727;28;20085;-70
2021/01/25 04:46:26;;;;;;;6.03;2.88;;;;;;;1.11;75.45;98856.44;5000990;28;20041;-72
2021/01/25 04:48:52;;;;;;;3.88;2.83;;;;;;;1.04;75.90;98858.72;4991345;28;20034;-72
2021/01/25 04:51:18;;;;;;;4.15;2.67;;;;;;;0.95;77.97;98856.91;4993105;28;20039;-72
2021/01/25 04:53:44;;;;;;;4.95;3.72;;;;;;;1.04;76.64;98858.72;4988987;28;20026;-72
2021/01/25 04:56:11;;;;;;;4.18;3.05;;;;;;;0.92;78.21;98865.81;4995169;28;20034;-72
2021/01/25 04:58:37;;;;;;;6.32;3.47;;;;;;;0.95;76.99;98857.72;4992377;28;20069;-73
2021/01/25 05:01:03;;;;;;;5.28;3.00;;;;;;;0.93;77.43;98858.81;5001848;28;20034;-72
2021/01/25 05:03:29;;;;;;;2.80;2.17;;;;;;;0.88;78.38;98861.81;4998017;28;20550;-73
2021/01/25 05:05:55;;;;;;;5.00;3.08;;;;;;;0.92;77.52;98867.59;4991836;28;20527;-72
2021/01/25 05:08:20;;;;;;;3.13;1.90;;;;;;;0.87;77.85;98868.00;5008516;28;20033;-72
2021/01/25 05:10:45;;;;;;;3.78;2.47;;;;;;;0.93;77.11;98866.63;5013139;28;20034;-72
2021/01/25 05:13:23;;;;;;;3.28;2.25;;;;;;;0.86;76.61;98861.16;5008413;28;20069;-72
2021/01/25 05:15:50;;;;;;;3.13;1.90;;;;;;;0.83;76.96;98864.84;4974370;28;20441;-72
2021/01/25 05:18:23;;;;;;;2.92;1.30;;;;;;;0.78;76.66;98863.56;4973856;28;20115;-72
2021/01/25 05:20:56;;;;;;;2.53;1.70;;;;;;;0.78;76.84;98864.38;4974074;28;20030;-72
2021/01/25 05:23:23;;;;;;;2.28;1.50;;;;;;;0.76;78.93;98863.72;4989997;28;20077;-72
2021/01/25 05:25:49;;;;;;;2.53;1.58;;;;;;;0.78;77.32;98866.16;5008720;28;20034;-72
2021/01/25 05:28:19;;;;;;;2.40;1.48;;;;;;;0.74;78.43;98873.41;5012598;28;20034;-72
2021/01/25 05:30:45;;;;;;;3.27;1.50;;;;;;;0.66;78.69;98870.63;5012898;28;20117;-72
2021/01/25 05:33:10;;;;;;;1.75;1.30;;;;;;;0.62;78.05;98877.88;5012383;28;20103;-72
2021/01/25 05:35:36;;;;;;;2.25;1.30;;;;;;;0.60;79.85;98869.38;5012778;28;20033;-72
2021/01/25 05:38:07;;;;;;;2.28;1.33;;;;;;;0.66;79.44;98875.00;5010471;28;20037;-72
2021/01/25 05:40:34;;;;;;;2.67;1.73;;;;;;;0.69;80.21;98875.59;5004972;28;20176;-72
2021/01/25 05:43:00;;;;;;;3.13;1.50;;;;;;;0.74;79.72;98881.22;4991360;28;20063;-73
2021/01/25 05:45:28;;;;;;;3.40;2.20;;;;;;;0.82;77.45;98872.75;4992812;28;20110;-72
2021/01/25 05:47:57;;;;;;;4.70;2.58;;;;;;;0.79;77.46;98878.22;5007557;28;20120;-72
2021/01/25 05:50:37;;;;;;;4.15;2.60;;;;;;;0.79;77.24;98876.44;5012078;28;20034;-72
2021/01/25 05:53:05;;;;;;;4.35;3.10;;;;;;;0.80;77.35;98874.66;5012190;28;20053;-72
2021/01/25 05:55:30;;;;;;;4.38;2.90;;;;;;;0.73;77.50;98876.97;5012542;28;20109;-72
2021/01/25 05:57:56;;;;;;;5.10;3.22;;;;;;;0.71;77.68;98875.44;5012348;28;20099;-72
2021/01/25 06:00:22;;;;;;;4.18;2.83;;;;;;;0.54;78.71;98874.25;4995460;28;20045;-72
2021/01/25 06:02:50;;;;;;;2.53;2.20;;;;;;;0.52;79.08;98886.56;4992517;28;20524;-72
2021/01/25 06:05:30;;;;;;;2.85;1.85;;;;;;;0.49;79.18;98885.03;4992702;28;20038;-72
2021/01/25 06:08:21;;;;;;;3.70;1.80;;;;;;;0.42;79.59;98887.31;4992481;28;20042;-72
2021/01/25 06:11:11;;;;;;;3.40;2.25;;;;;;;0.32;80.38;98899.44;5000251;28;20041;-73
2021/01/25 06:14:00;;;;;;;3.22;2.05;;;;;;;0.26;80.20;98893.94;4994556;28;20038;-72
2021/01/25 06:16:28;;;;;;;2.05;1.50;;;;;;;0.24;80.72;98895.81;4991787;28;20402;-72
2021/01/25 06:19:22;;;;;;;3.30;2.00;;;;;;;0.20;80.50;98898.69;4991783;28;20037;-72
2021/01/25 06:21:48;;;;;;;2.80;2.10;;;;;;;0.19;81.39;98907.44;4990001;28;20046;-72
2021/01/25 06:24:15;;;;;;;3.30;2.33;;;;;;;0.17;81.88;98908.53;4992137;28;20416;-72
2021/01/25 06:26:40;;;;;;;2.95;1.80;;;;;;;0.14;81.57;98911.34;5007522;28;20045;-72
2021/01/25 06:29:07;;;;;;;2.80;1.98;;;;;;;0.15;80.99;98913.84;4991877;28;20034;-72
2021/01/25 06:31:39;;;;;;;5.32;3.03;;;;;;;0.26;80.22;98918.13;4992339;28;20045;-72
2021/01/25 06:34:09;;;;;;;4.15;2.50;;;;;;;0.25;81.65;98915.69;5001688;28;20030;-72
2021/01/25 06:36:35;;;;;;;6.15;3.95;;;;;;;0.39;79.87;98916.19;5006838;28;20447;-72
2021/01/25 06:39:05;;;;;;;6.03;3.42;;;;;;;0.39;79.97;98913.59;4991204;28;20057;-72
2021/01/25 06:41:43;;;;;;;3.73;2.77;;;;;;;0.40;81.82;98914.41;4992442;28;20049;-72
2021/01/25 06:44:10;;;;;;;4.38;2.60;;;;;;;0.36;82.80;98928.63;4991326;28;20089;-72
2021/01/25 06:46:38;;;;;;;3.20;2.20;;;;;;;0.35;82.56;98927.78;4997019;28;20121;-72
2021/01/25 06:49:06;;;;;;;2.70;2.00;;;;;;;0.35;83.43;98934.78;5011829;28;20038;-72
2021/01/25 06:51:32;;;;;;;3.05;2.10;;;;;;;0.36;83.43;98939.84;5005818;28;20030;-72
2021/01/25 06:54:01;;;;;;;3.92;2.17;;;;;;;0.37;83.18;98941.50;4989816;28;20153;-72
2021/01/25 06:56:26;;;;;;;5.18;3.50;;;;;;;0.45;81.20;98940.84;4990262;28;20034;-73
2021/01/25 06:58:52;;;;;;;6.25;4.60;;;;;;;0.50;80.79;98946.53;4991040;28;20026;-72
2021/01/25 07:01:22;;;;;;;9.13;5.20;;;;;;;0.51;81.09;98944.75;4992869;28;20034;-72
2021/01/25 07:03:56;;;;;;;6.70;4.78;;;;;;;0.44;82.69;98944.41;4990476;28;20455;-72
2021/01/25 07:06:22;;;;;;;7.60;5.13;;;;;;;0.48;81.74;98953.63;4989899;28;20043;-72
2021/01/25 07:08:57;;;;;;;6.50;4.35;;;;;;;0.38;82.58;98950.97;4991379;28;20030;-72
2021/01/25 07:11:26;;;;;;;4.32;3.63;;;;;;;0.44;82.40;98957.41;4985955;28;20031;-73
2021/01/25 07:13:52;;;;;;;5.85;4.10;;;;;;;0.45;82.09;98960.84;4986478;28;20053;-72
2021/01/25 07:16:17;;;;;;;5.22;3.17;;;;;;;0.44;82.40;98965.22;4987827;28;20415;-72
2021/01/25 07:18:43;;;;;;;5.22;3.63;;;;;;;0.47;81.71;98961.53;4990085;28;20030;-72
2021/01/25 07:21:12;;;;;;;5.88;4.38;;;;;;;0.53;81.55;98964.47;4990886;28;20026;-72
2021/01/25 07:23:42;;;;;;;6.05;3.63;;;;;;;0.47;82.07;98969.34;4994429;28;20514;-72
2021/01/25 07:26:10;;;;;;;4.97;3.53;;;;;;;0.54;81.55;98980.88;5007833;28;20561;-72
2021/01/25 07:28:36;;;;;;;7.20;5.00;;;;;;;0.63;81.18;98970.56;5010707;28;20061;-72
2021/01/25 07:31:01;;;;;;;5.53;3.75;;;;;;;0.54;81.83;98975.69;5010994;28;20120;-72
2021/01/25 07:33:27;;;;;;;6.07;3.70;;;;;;;0.52;82.76;98981.00;5007137;28;20122;-71
2021/01/25 07:35:54;;;;;;;5.63;4.18;;;;;;;0.62;81.43;98988.88;5010545;28;20061;-73
2021/01/25 07:38:20;;;;;;;6.10;4.22;;;;;;;0.61;81.04;98988.06;5010557;28;20420;-73
2021/01/25 07:40:47;;;;;;;5.40;2.92;;;;;;;0.58;83.65;98992.69;5010701;28;20503;-73
2021/01/25 07:43:17;;;;;;;3.38;2.55;;;;;;;0.59;83.90;98997.75;5008582;28;20030;-73
2021/01/25 07:45:44;;;;;;;3.50;2.63;;;;;;;0.65;84.12;99001.66;5009152;28;20049;-73
2021/01/25 07:48:10;;;;;;;3.95;3.13;;;;;;;0.76;82.63;99003.34;5009920;28;20121;-71
2021/01/25 07:50:36;;;;;;;2.70;2.22;;;;;;;0.83;82.44;99005.34;5010421;28;20448;-73
2021/01/25 07:53:06;;;;;;;3.25;2.38;;;;;;;0.90;82.59;99017.81;5010491;28;20061;-73
2021/01/25 07:55:37;;;;;;;3.00;1.90;;;;;;;0.99;82.27;99012.69;5010209;28;20042;-73
2021/01/25 07:58:10;;;;;;;4.13;3.15;;;;;;;0.97;82.13;99021.56;5009971;28;20462;-73
2021/01/25 08:00:40;;;;;;;3.60;2.10;;;;;;;0.96;81.60;99020.75;5010277;28;20022;-73
2021/01/25 08:03:08;;;;;;;2.83;2.03;;;;;;;1.03;81.41;99019.28;5009999;28;20026;-73
2021/01/25 08:05:34;;;;;;;3.22;1.85;;;;;;;1.12;81.12;99020.31;5008961;28;20406;-73
2021/01/25 08:08:03;;;;;;;5.43;4.03;;;;;;;1.21;80.59;99026.50;5010560;28;20117;-73
2021/01/25 08:10:31;;;;;;;5.68;4.40;;;;;;;1.24;79.85;99026.22;4991867;28;20560;-73
2021/01/25 08:12:59;;;;;;;5.32;3.47;;;;;;;1.12;80.42;99035.94;4990466;28;20026;-73
2021/01/25 08:15:29;;;;;;;4.63;3.40;;;;;;;1.15;80.34;99033.06;4990735;28;20141;-73
2021/01/25 08:18:07;;;;;;;4.32;2.55;;;;;;;1.12;81.56;99029.88;4991801;28;20030;-73
2021/01/25 08:20:36;;;;;;;4.07;2.70;;;;;;;1.14;81.47;99026.19;4991023;28;20029;-73
2021/01/25 08:23:06;;;;;;;4.63;2.55;;;;;;;1.16;81.88;99033.88;4993823;28;20387;-73
2021/01/25 08:25:31;;;;;;;4.35;3.03;;;;;;;1.16;83.24;99039.09;4993173;28;20038;-73
2021/01/25 08:27:59;;;;;;;6.15;3.83;;;;;;;1.28;81.73;99038.06;4992805;28;20042;-73
2021/01/25 08:30:30;;;;;;;5.70;3.78;;;;;;;1.33;81.58;99048.91;4991187;28;20057;-73
2021/01/25 08:32:56;;;;;;;5.65;4.30;;;;;;;1.45;80.83;99050.50;4999770;28;20495;-73
2021/01/25 08:35:34;;;;;;;6.25;4.90;;;;;;;1.54;80.58;99056.69;5016274;28;20088;-73
2021/01/25 08:38:24;;;;;;;7.20;5.30;;;;;;;1.46;81.71;99054.72;5025157;28;20030;-73
2021/01/25 08:40:50;;;;;;;3.78;3.10;;;;;;;1.46;82.29;99059.13;5029571;28;20394;-74
2021/01/25 08:43:28;;;;;;;7.78;4.57;;;;;;;1.56;82.25;99059.16;5032744;28;20067;-73
2021/01/25 08:46:07;;;;;;;6.53;4.90;;;;;;;1.55;81.65;99073.13;5035635;28;20049;-73
2021/01/25 08:48:33;;;;;;;5.35;3.42;;;;;;;1.61;83.20;99075.22;5017600;28;20038;-73
2021/01/25 08:51:15;;;;;;;7.25;3.88;;;;;;;1.69;82.07;99078.00;5015044;28;20127;-73
2021/01/25 08:53:43;;;;;;;7.60;5.72;;;;;;;1.79;81.28;99078.03;4998628;28;20056;-73
2021/01/25 08:56:38;;;;;;;4.88;4.10;;;;;;;1.80;81.01;99080.50;4995632;28;20038;-73
2021/01/25 08:59:14;;;;;;;6.18;4.72;;;;;;;1.76;81.71;99092.16;4994844;28;20047;-74
2021/01/25 09:01:44;;;;;;;6.82;5.28;;;;;;;1.81;81.24;99087.41;4992854;28;20626;-73
2021/01/25 09:04:10;;;;;;;10.10;6.73;;;;;;;1.81;81.30;99091.75;4993897;28;20077;-73
2021/01/25 09:06:53;;;;;;;8.18;5.90;;;;;;;1.78;81.17;99087.63;4994196;28;20297;-73
2021/01/25 09:09:20;;;;;;;5.97;4.63;;;;;;;1.77;81.91;99099.03;5002184;28;20054;-73
2021/01/25 09:11:46;;;;;;;8.50;6.28;;;;;;;1.88;81.29;99093.72;5013664;28;20462;-73
2021/01/25 09:14:17;;;;;;;7.82;6.03;;;;;;;1.81;81.96;99103.03;5024414;28;20058;-73
2021/01/25 09:16:44;;;;;;;7.72;5.63;;;;;;;1.95;81.38;99101.00;4993959;28;20398;-73
2021/01/25 09:19:10;;;;;;;6.28;5.13;;;;;;;1.97;81.41;99112.13;4994350;28;20022;-73
2021/01/25 09:21:36;;;;;;;9.38;6.88;;;;;;;2.01;80.72;99114.34;4992252;28;20034;-73
2021/01/25 09:24:01;;;;;;;8.32;6.30;;;;;;;2.11;80.41;99116.97;4993139;28;20060;-71
2021/01/25 09:26:26;;;;;;;9.57;6.20;;;;;;;2.12;80.32;99116.88;4988848;28;20030;-73
2021/01/25 09:28:52;;;;;;;8.15;5.55;;;;;;;2.11;80.59;99115.19;4993316;28;20040;-73
2021/01/25 09:31:22;;;;;;;9.40;6.47;;;;;;;2.21;80.45;99133.47;4993764;28;20060;-73
2021/01/25 09:33:47;;;;;;;8.40;6.20;;;;;;;2.23;80.14;99118.53;4980471;28;20118;-73
2021/01/25 09:36:12;;;;;;;8.52;6.38;;;;;;;2.20;80.14;99129.22;4972253;28;20556;-73
2021/01/25 09:38:37;;;;;;;8.63;6.65;;;;;;;2.23;80.14;99131.56;4973993;28;20119;-73
2021/01/25 09:41:03;;;;;;;6.90;5.13;;;;;;;2.13;80.42;99136.75;4973809;28;20058;-74
2021/01/25 09:43:28;;;;;;;11.02;8.02;;;;;;;2.25;80.09;99141.88;4985400;28;20064;-73
2021/01/25 09:45:53;;;;;;;10.40;7.25;;;;;;;2.20;80.41;99141.44;4993468;28;20047;-73
2021/01/25 09:48:19;;;;;;;8.05;6.40;;;;;;;2.22;80.36;99150.78;4992523;28;20066;-73
2021/01/25 09:50:47;;;;;;;9.23;6.40;;;;;;;2.27;79.96;99151.22;4993263;28;20349;-73
2021/01/25 09:53:13;;;;;;;11.05;7.25;;;;;;;2.25;80.09;99157.53;4992914;28;20038;-73
2021/01/25 09:55:39;;;;;;;11.35;8.75;;;;;;;2.26;80.00;99165.19;4990843;28;20042;-73
2021/01/25 09:58:04;;;;;;;10.80;8.13;;;;;;;2.25;79.84;99173.16;4992646;28;20114;-73
2021/01/25 10:00:30;;;;;;;9.85;7.68;;;;;;;2.18;80.83;99178.09;4991380;28;20038;-73
2021/01/25 10:02:55;;;;;;;9.40;6.47;;;;;;;2.17;80.49;99175.59;4992569;28;20408;-73
2021/01/25 10:05:21;;;;;;;10.05;7.47;;;;;;;2.15;80.54;99185.34;4992575;28;20038;-73
2021/01/25 10:07:46;;;;;;;10.98;8.38;;;;;;;2.17;80.54;99192.09;4992822;28;20041;-73
2021/01/25 10:10:14;;;;;;;11.68;8.23;;;;;;;2.10;80.47;99196.19;4978545;28;20050;-73
2021/01/25 10:12:40;;;;;;;9.85;7.35;;;;;;;1.98;81.33;99191.97;4992449;28;20054;-74
2021/01/25 10:15:12;;;;;;;11.82;7.38;;;;;;;2.04;80.86;99194.09;4992460;28;20041;-73
2021/01/25 10:17:37;;;;;;;11.65;7.75;;;;;;;2.09;80.72;99202.34;4992473;28;20039;-73
2021/01/25 10:20:04;;;;;;;10.05;7.30;;;;;;;2.09;81.12;99203.16;4992016;28;20034;-73
2021/01/25 10:22:30;;;;;;;10.05;7.55;;;;;;;2.10;81.32;99204.00;4992240;28;20044;-73
2021/01/25 10:24:55;;;;;;;7.40;5.55;;;;;;;2.09;81.50;99202.34;4992326;28;20030;-73
2021/01/25 10:27:20;;;;;;;6.88;4.93;;;;;;;2.07;83.11;99209.47;4992733;28;20123;-73
2021/01/25 10:29:46;;;;;;;9.52;7.47;;;;;;;2.23;81.58;99215.03;4992284;28;20041;-73
2021/01/25 10:32:14;;;;;;;8.23;6.32;;;;;;;2.17;82.02;99212.97;4990350;28;20030;-73
2021/01/25 10:34:40;;;;;;;9.63;7.05;;;;;;;2.18;81.68;99224.22;4992262;28;20042;-73
2021/01/25 10:37:05;;;;;;;13.10;9.15;;;;;;;2.20;81.43;99217.91;4990898;28;20041;-73
2021/01/25 10:39:31;;;;;;;10.95;7.90;;;;;;;2.20;81.23;99222.28;4991933;28;20554;-73
2021/01/25 10:41:56;;;;;;;11.50;7.72;;;;;;;2.16;81.38;99221.72;4991924;28;20270;-73
2021/01/25 10:44:21;;;;;;;9.82;6.70;;;;;;;2.00;82.67;99221.34;4991540;28;20097;-73
2021/01/25 10:46:47;;;;;;;13.93;9.73;;;;;;;2.15;81.75;99224.47;4986285;28;20047;-73
2021/01/25 10:49:12;;;;;;;9.27;6.57;;;;;;;2.07;82.15;99228.56;4982072;28;20081;-73
2021/01/25 10:51:37;;;;;;;8.38;6.40;;;;;;;2.09;83.30;99228.41;4991765;28;20042;-73
2021/01/25 10:54:03;;;;;;;12.52;8.02;;;;;;;1.99;82.97;99228.34;4991073;28;20096;-74
2021/01/25 10:56:28;;;;;;;14.05;10.15;;;;;;;1.96;83.29;99228.63;4991792;28;20034;-73
2021/01/25 10:58:53;;;;;;;11.55;8.32;;;;;;;2.02;82.97;99235.09;4991853;28;20037;-73
2021/01/25 11:01:18;;;;;;;9.50;6.53;;;;;;;1.96;83.85;99241.66;4991345;28;20038;-73
2021/01/25 11:03:46;;;;;;;10.15;7.30;;;;;;;1.92;84.02;99241.06;4991803;28;20034;-73
2021/01/25 11:06:14;;;;;;;10.80;7.47;;;;;;;1.87;84.46;99239.81;4991032;28;20034;-73
2021/01/25 11:08:39;;;;;;;7.40;5.43;;;;;;;1.97;84.11;99248.50;4991457;28;20034;-73
2021/01/25 11:11:05;;;;;;;11.70;8.55;;;;;;;2.00;83.74;99247.44;4991392;28;20105;-73
2021/01/25 11:13:30;;;;;;;14.45;9.55;;;;;;;2.16;82.68;99246.97;4991620;28;20069;-73
2021/01/25 11:15:56;;;;;;;10.88;7.22;;;;;;;2.09;83.82;99251.88;4991800;28;20066;-73
2021/01/25 11:18:23;;;;;;;7.63;5.68;;;;;;;2.11;84.45;99248.19;4991668;28;20448;-73
2021/01/25 11:20:49;;;;;;;12.13;8.82;;;;;;;2.36;82.94;99258.31;4991974;28;20037;-73
2021/01/25 11:23:14;;;;;;;13.68;9.77;;;;;;;2.38;82.13;99259.03;4990797;28;20125;-73
2021/01/25 11:25:39;;;;;;;11.13;7.28;;;;;;;2.29;83.37;99271.91;4991394;28;20046;-73
2021/01/25 11:28:05;;;;;;;11.18;7.70;;;;;;;2.38;82.30;99272.06;4991055;28;20092;-73
2021/01/25 11:30:30;;;;;;;8.15;6.03;;;;;;;2.35;82.76;99262.72;4989991;28;20042;-74
2021/01/25 11:32:55;;;;;;;9.45;6.82;;;;;;;2.41;82.23;99271.78;4984800;28;20043;-74
2021/01/25 11:35:21;;;;;;;17.25;11.52;;;;;;;2.50;81.75;99277.06;4982750;28;20058;-73
2021/01/25 11:37:46;;;;;;;11.23;7.70;;;;;;;2.33;82.88;99273.28;4990732;28;20469;-73
2021/01/25 11:40:12;;;;;;;13.30;8.48;;;;;;;2.29;82.95;99277.13;4990664;28;20113;-73
2021/01/25 11:42:37;;;;;;;10.30;7.40;;;;;;;2.32;82.56;99287.28;4990713;28;20030;-73